Date,TemperatureHighF,TemperatureAvgF,TemperatureLowF,DewpointHighF,DewpointAvgF,DewpointLowF,HumidityHigh,HumidityAvg,HumidityLow,PressureMaxIn,PressureMinIn,WindSpeedMaxMPH,WindSpeedAvgMPH,GustSpeedMaxMPH,PrecipitationSumIn
2013-9-1,77.8,69.0,64.9,70.4,64.8,60.3,97,87,74,29.89,29.75,9,1,11,0.31
2013-9-2,77.8,70.7,64.9,67.6,64.0,61.6,93,80,63,29.90,29.77,16,2,17,0.00
2013-9-3,77.4,69.3,62.7,65.9,62.1,56.4,91,78,60,29.98,29.75,12,3,17,0.00
2013-9-4,77.6,66.9,55.8,65.7,58.1,49.8,92,74,52,30.11,29.94,9,2,16,0.00
2013-9-5,79.1,69.0,59.4,63.2,56.1,49.5,86,64,47,30.12,30.05,10,2,16,0.00
2013-9-6,73.6,64.2,59.7,63.2,58.3,53.4,89,81,72,30.18,30.05,11,2,17,0.00
2013-9-7,75.1,64.4,55.9,66.2,59.1,53.0,93,83,74,30.14,29.96,15,1,15,0.00
2013-9-8,78.5,68.6,62.2,64.5,61.5,58.6,88,79,57,30.00,29.90,13,2,14,0.00
2013-9-9,75.7,69.0,61.2,67.5,63.3,57.5,91,82,74,30.15,29.97,7,1,11,0.00
2013-9-10,79.7,69.9,59.3,68.7,64.1,56.6,93,82,65,30.22,30.12,7,1,9,0.00
2013-9-11,80.4,70.8,65.5,70.6,65.0,60.0,94,82,70,30.20,30.05,8,1,12,0.09
2013-9-12,80.3,70.9,64.6,69.4,64.1,57.5,94,79,65,30.06,29.80,12,3,18,0.00
2013-9-13,69.2,63.1,53.7,60.0,53.9,45.7,91,73,52,29.89,29.75,20,4,23,0.03
2013-9-14,67.4,55.4,47.4,54.8,47.8,42.1,88,76,61,30.15,29.88,13,2,25,0.00
2013-9-15,67.8,59.2,52.0,59.4,54.1,48.2,93,83,70,30.23,30.10,11,1,16,0.00
2013-9-16,71.3,62.9,57.2,60.3,56.5,51.7,94,80,65,30.18,30.07,14,1,14,0.00
2013-9-17,59.6,55.7,52.2,55.1,51.1,47.2,90,84,77,30.33,30.15,7,1,11,0.00
2013-9-18,64.2,53.4,48.8,54.1,50.6,46.9,96,90,83,30.32,30.14,5,0,9,0.00
2013-9-19,66.6,60.1,55.0,62.9,58.2,53.7,97,93,86,30.22,30.06,7,0,10,0.02
2013-9-20,75.8,66.3,61.2,67.5,62.3,58.0,98,87,70,30.10,29.88,8,1,13,0.01
2013-9-21,65.8,60.9,54.6,62.5,60.3,53.1,99,98,88,29.92,29.65,11,2,15,0.82
2013-9-22,70.1,57.5,51.0,57.8,51.8,47.0,98,82,59,29.93,29.70,20,5,30,0.00
2013-9-23,69.5,55.0,48.5,56.3,50.4,42.8,95,85,69,30.08,29.90,8,2,14,0.00
2013-9-24,70.6,58.6,52.6,60.0,55.3,44.4,98,89,70,30.09,29.91,9,1,12,0.00
2013-9-25,59.1,55.9,53.1,56.6,54.8,49.7,98,96,88,29.95,29.83,4,0,5,0.23
2013-9-26,67.0,57.8,52.7,55.4,52.0,48.3,94,82,64,30.07,29.88,8,0,9,0.00
2013-9-27,68.9,58.2,52.1,57.1,52.0,44.2,91,80,68,30.20,30.03,9,1,10,0.00
2013-9-28,63.4,55.6,51.5,54.5,51.5,48.4,95,86,72,30.26,30.13,7,0,10,0.00
2013-9-29,65.4,55.2,50.1,55.7,51.5,46.6,95,88,72,30.20,30.00,6,1,8,0.00
2013-9-30,63.7,57.8,53.4,57.1,54.2,49.8,95,88,78,30.10,29.98,5,0,6,0.00